sensor_id;sensor_type;location;lat;lon;timestamp;P1;durP1;ratioP1;P2;durP2;ratioP2
53108;SDS011;39007;53.090;6.074;2023-03-14T00:00:07;29.40;;;6.22;;
53108;SDS011;39007;53.090;6.074;2023-03-14T00:02:33;26.73;;;6.28;;
53108;SDS011;39007;53.090;6.074;2023-03-14T00:05:00;31.23;;;6.93;;
53108;SDS011;39007;53.090;6.074;2023-03-14T00:07:31;33.95;;;6.90;;
53108;SDS011;39007;53.090;6.074;2023-03-14T00:09:59;32.60;;;6.80;;
53108;SDS011;39007;53.090;6.074;2023-03-14T00:12:25;28.42;;;5.70;;
53108;SDS011;39007;53.090;6.074;2023-03-14T00:14:51;30.00;;;6.57;;
53108;SDS011;39007;53.090;6.074;2023-03-14T00:17:17;26.77;;;5.72;;
53108;SDS011;39007;53.090;6.074;2023-03-14T00:19:43;30.25;;;6.53;;
53108;SDS011;39007;53.090;6.074;2023-03-14T00:22:10;34.33;;;6.63;;
53108;SDS011;39007;53.090;6.074;2023-03-14T00:24:36;27.63;;;5.28;;
53108;SDS011;39007;53.090;6.074;2023-03-14T00:27:02;26.48;;;5.07;;
53108;SDS011;39007;53.090;6.074;2023-03-14T00:29:28;27.48;;;5.65;;
53108;SDS011;39007;53.090;6.074;2023-03-14T00:31:54;26.17;;;5.00;;
53108;SDS011;39007;53.090;6.074;2023-03-14T00:34:20;25.45;;;6.43;;
53108;SDS011;39007;53.090;6.074;2023-03-14T00:36:46;29.08;;;6.03;;
53108;SDS011;39007;53.090;6.074;2023-03-14T00:39:12;29.50;;;5.22;;
53108;SDS011;39007;53.090;6.074;2023-03-14T00:41:38;28.48;;;6.70;;
53108;SDS011;39007;53.090;6.074;2023-03-14T00:44:04;30.83;;;5.38;;
53108;SDS011;39007;53.090;6.074;2023-03-14T00:46:30;25.52;;;5.82;;
53108;SDS011;39007;53.090;6.074;2023-03-14T00:48:56;28.27;;;5.35;;
53108;SDS011;39007;53.090;6.074;2023-03-14T00:51:23;22.60;;;5.78;;
53108;SDS011;39007;53.090;6.074;2023-03-14T00:53:49;28.98;;;5.72;;
53108;SDS011;39007;53.090;6.074;2023-03-14T00:56:15;25.90;;;5.45;;
53108;SDS011;39007;53.090;6.074;2023-03-14T00:58:41;24.35;;;6.43;;
53108;SDS011;39007;53.090;6.074;2023-03-14T01:01:08;26.38;;;5.38;;
53108;SDS011;39007;53.090;6.074;2023-03-14T01:03:35;24.85;;;5.10;;
53108;SDS011;39007;53.090;6.074;2023-03-14T01:06:08;24.75;;;5.35;;
53108;SDS011;39007;53.090;6.074;2023-03-14T01:08:34;21.88;;;4.88;;
53108;SDS011;39007;53.090;6.074;2023-03-14T01:11:04;24.33;;;5.10;;
53108;SDS011;39007;53.090;6.074;2023-03-14T01:13:30;25.83;;;4.70;;
53108;SDS011;39007;53.090;6.074;2023-03-14T01:16:00;22.95;;;5.10;;
53108;SDS011;39007;53.090;6.074;2023-03-14T01:18:26;21.63;;;4.40;;
53108;SDS011;39007;53.090;6.074;2023-03-14T01:20:52;22.52;;;4.40;;
53108;SDS011;39007;53.090;6.074;2023-03-14T01:23:18;25.17;;;5.13;;
53108;SDS011;39007;53.090;6.074;2023-03-14T01:25:44;23.92;;;5.13;;
53108;SDS011;39007;53.090;6.074;2023-03-14T01:28:10;28.17;;;4.90;;
53108;SDS011;39007;53.090;6.074;2023-03-14T01:30:36;16.67;;;4.05;;
53108;SDS011;39007;53.090;6.074;2023-03-14T01:33:02;22.27;;;4.97;;
53108;SDS011;39007;53.090;6.074;2023-03-14T01:35:28;20.15;;;4.95;;
53108;SDS011;39007;53.090;6.074;2023-03-14T01:37:55;21.98;;;4.15;;
53108;SDS011;39007;53.090;6.074;2023-03-14T01:40:21;24.52;;;4.85;;
53108;SDS011;39007;53.090;6.074;2023-03-14T01:42:54;24.00;;;5.10;;
53108;SDS011;39007;53.090;6.074;2023-03-14T01:48:07;21.92;;;4.15;;
53108;SDS011;39007;53.090;6.074;2023-03-14T01:50:33;17.17;;;4.40;;
53108;SDS011;39007;53.090;6.074;2023-03-14T01:52:59;21.83;;;4.35;;
53108;SDS011;39007;53.090;6.074;2023-03-14T01:55:25;21.67;;;4.45;;
53108;SDS011;39007;53.090;6.074;2023-03-14T01:57:56;22.45;;;4.50;;
53108;SDS011;39007;53.090;6.074;2023-03-14T02:00:24;21.17;;;3.58;;
53108;SDS011;39007;53.090;6.074;2023-03-14T02:02:51;19.67;;;4.25;;
53108;SDS011;39007;53.090;6.074;2023-03-14T02:05:19;20.90;;;3.90;;
53108;SDS011;39007;53.090;6.074;2023-03-14T02:07:48;22.20;;;3.78;;
53108;SDS011;39007;53.090;6.074;2023-03-14T02:10:15;17.33;;;3.97;;
53108;SDS011;39007;53.090;6.074;2023-03-14T02:12:44;19.52;;;3.63;;
53108;SDS011;39007;53.090;6.074;2023-03-14T02:15:10;17.60;;;3.22;;
53108;SDS011;39007;53.090;6.074;2023-03-14T02:17:36;16.80;;;3.20;;
53108;SDS011;39007;53.090;6.074;2023-03-14T02:22:35;16.98;;;3.97;;
53108;SDS011;39007;53.090;6.074;2023-03-14T02:25:11;18.20;;;4.10;;
53108;SDS011;39007;53.090;6.074;2023-03-14T02:27:39;12.88;;;3.30;;
53108;SDS011;39007;53.090;6.074;2023-03-14T02:30:10;19.50;;;3.58;;
53108;SDS011;39007;53.090;6.074;2023-03-14T02:32:37;16.85;;;3.22;;
53108;SDS011;39007;53.090;6.074;2023-03-14T02:35:09;16.77;;;3.53;;
53108;SDS011;39007;53.090;6.074;2023-03-14T02:37:38;21.42;;;3.60;;
53108;SDS011;39007;53.090;6.074;2023-03-14T02:40:05;19.13;;;4.05;;
53108;SDS011;39007;53.090;6.074;2023-03-14T02:42:31;20.17;;;4.47;;
53108;SDS011;39007;53.090;6.074;2023-03-14T02:47:36;19.63;;;4.05;;
53108;SDS011;39007;53.090;6.074;2023-03-14T02:50:04;20.08;;;3.72;;
53108;SDS011;39007;53.090;6.074;2023-03-14T02:52:31;21.23;;;3.47;;
53108;SDS011;39007;53.090;6.074;2023-03-14T02:54:57;20.30;;;4.22;;
53108;SDS011;39007;53.090;6.074;2023-03-14T02:57:23;16.27;;;3.80;;
53108;SDS011;39007;53.090;6.074;2023-03-14T02:59:49;16.00;;;4.05;;
53108;SDS011;39007;53.090;6.074;2023-03-14T03:02:15;18.52;;;3.92;;
53108;SDS011;39007;53.090;6.074;2023-03-14T03:04:41;22.35;;;3.72;;
53108;SDS011;39007;53.090;6.074;2023-03-14T03:07:07;22.15;;;4.30;;
53108;SDS011;39007;53.090;6.074;2023-03-14T03:09:34;25.05;;;4.72;;
53108;SDS011;39007;53.090;6.074;2023-03-14T03:12:00;24.85;;;4.55;;
53108;SDS011;39007;53.090;6.074;2023-03-14T03:14:26;24.83;;;4.90;;
53108;SDS011;39007;53.090;6.074;2023-03-14T03:16:52;23.95;;;5.25;;
53108;SDS011;39007;53.090;6.074;2023-03-14T03:19:18;27.95;;;4.88;;
53108;SDS011;39007;53.090;6.074;2023-03-14T03:21:44;23.52;;;4.95;;
53108;SDS011;39007;53.090;6.074;2023-03-14T03:24:10;20.08;;;4.07;;
53108;SDS011;39007;53.090;6.074;2023-03-14T03:26:36;24.38;;;4.78;;
53108;SDS011;39007;53.090;6.074;2023-03-14T03:29:03;27.30;;;5.82;;
53108;SDS011;39007;53.090;6.074;2023-03-14T03:31:29;29.23;;;5.18;;
53108;SDS011;39007;53.090;6.074;2023-03-14T03:33:56;27.83;;;5.38;;
53108;SDS011;39007;53.090;6.074;2023-03-14T03:36:22;33.08;;;5.70;;
53108;SDS011;39007;53.090;6.074;2023-03-14T03:38:49;28.75;;;5.18;;
53108;SDS011;39007;53.090;6.074;2023-03-14T03:41:15;29.70;;;5.07;;
53108;SDS011;39007;53.090;6.074;2023-03-14T03:43:41;24.75;;;4.82;;
53108;SDS011;39007;53.090;6.074;2023-03-14T03:46:07;32.38;;;5.60;;
53108;SDS011;39007;53.090;6.074;2023-03-14T03:48:34;37.15;;;5.80;;
53108;SDS011;39007;53.090;6.074;2023-03-14T03:51:00;33.72;;;5.43;;
53108;SDS011;39007;53.090;6.074;2023-03-14T03:53:26;33.00;;;5.57;;
53108;SDS011;39007;53.090;6.074;2023-03-14T03:55:52;29.33;;;5.60;;
53108;SDS011;39007;53.090;6.074;2023-03-14T03:58:19;27.92;;;5.07;;
53108;SDS011;39007;53.090;6.074;2023-03-14T04:00:45;31.02;;;6.28;;
53108;SDS011;39007;53.090;6.074;2023-03-14T04:03:11;30.73;;;5.45;;
53108;SDS011;39007;53.090;6.074;2023-03-14T04:05:37;29.50;;;5.72;;
53108;SDS011;39007;53.090;6.074;2023-03-14T04:08:03;28.02;;;4.95;;
53108;SDS011;39007;53.090;6.074;2023-03-14T04:10:30;35.97;;;5.72;;
53108;SDS011;39007;53.090;6.074;2023-03-14T04:12:56;30.60;;;5.75;;
53108;SDS011;39007;53.090;6.074;2023-03-14T04:15:22;25.13;;;4.30;;
53108;SDS011;39007;53.090;6.074;2023-03-14T04:17:48;35.10;;;6.03;;
53108;SDS011;39007;53.090;6.074;2023-03-14T04:20:14;26.52;;;5.22;;
53108;SDS011;39007;53.090;6.074;2023-03-14T04:22:40;34.03;;;5.53;;
53108;SDS011;39007;53.090;6.074;2023-03-14T04:25:06;27.55;;;5.35;;
53108;SDS011;39007;53.090;6.074;2023-03-14T04:27:33;31.02;;;5.13;;
53108;SDS011;39007;53.090;6.074;2023-03-14T04:29:59;27.73;;;4.85;;
53108;SDS011;39007;53.090;6.074;2023-03-14T04:32:25;30.70;;;5.32;;
53108;SDS011;39007;53.090;6.074;2023-03-14T04:34:51;27.48;;;5.57;;
53108;SDS011;39007;53.090;6.074;2023-03-14T04:37:17;26.25;;;5.72;;
53108;SDS011;39007;53.090;6.074;2023-03-14T04:39:43;31.17;;;5.40;;
53108;SDS011;39007;53.090;6.074;2023-03-14T04:42:09;24.52;;;5.15;;
53108;SDS011;39007;53.090;6.074;2023-03-14T04:44:35;32.67;;;6.07;;
53108;SDS011;39007;53.090;6.074;2023-03-14T04:47:01;31.08;;;6.45;;
53108;SDS011;39007;53.090;6.074;2023-03-14T04:49:27;32.17;;;7.00;;
53108;SDS011;39007;53.090;6.074;2023-03-14T04:51:53;31.90;;;7.25;;
53108;SDS011;39007;53.090;6.074;2023-03-14T04:54:19;28.17;;;7.30;;
53108;SDS011;39007;53.090;6.074;2023-03-14T04:56:45;19.67;;;6.47;;
53108;SDS011;39007;53.090;6.074;2023-03-14T04:59:11;20.80;;;6.90;;
53108;SDS011;39007;53.090;6.074;2023-03-14T05:01:37;25.23;;;7.55;;
53108;SDS011;39007;53.090;6.074;2023-03-14T05:04:03;23.83;;;7.40;;
53108;SDS011;39007;53.090;6.074;2023-03-14T05:06:29;25.67;;;7.45;;
53108;SDS011;39007;53.090;6.074;2023-03-14T05:08:55;20.90;;;6.55;;
53108;SDS011;39007;53.090;6.074;2023-03-14T05:11:21;25.48;;;7.40;;
53108;SDS011;39007;53.090;6.074;2023-03-14T05:13:47;26.08;;;7.07;;
53108;SDS011;39007;53.090;6.074;2023-03-14T05:16:13;23.98;;;6.88;;
53108;SDS011;39007;53.090;6.074;2023-03-14T05:18:40;18.08;;;7.15;;
53108;SDS011;39007;53.090;6.074;2023-03-14T05:21:06;20.60;;;7.43;;
53108;SDS011;39007;53.090;6.074;2023-03-14T05:23:32;19.50;;;7.40;;
53108;SDS011;39007;53.090;6.074;2023-03-14T05:25:58;18.33;;;7.30;;
53108;SDS011;39007;53.090;6.074;2023-03-14T05:28:24;16.67;;;7.05;;
53108;SDS011;39007;53.090;6.074;2023-03-14T05:30:50;16.25;;;6.40;;
53108;SDS011;39007;53.090;6.074;2023-03-14T05:33:16;18.88;;;6.50;;
53108;SDS011;39007;53.090;6.074;2023-03-14T05:35:42;14.50;;;5.95;;
53108;SDS011;39007;53.090;6.074;2023-03-14T05:38:08;15.40;;;5.68;;
53108;SDS011;39007;53.090;6.074;2023-03-14T05:40:35;17.88;;;6.53;;
53108;SDS011;39007;53.090;6.074;2023-03-14T05:43:01;22.25;;;6.88;;
53108;SDS011;39007;53.090;6.074;2023-03-14T05:45:27;13.43;;;6.85;;
53108;SDS011;39007;53.090;6.074;2023-03-14T05:47:53;15.80;;;6.32;;
53108;SDS011;39007;53.090;6.074;2023-03-14T05:50:19;23.10;;;7.45;;
53108;SDS011;39007;53.090;6.074;2023-03-14T05:52:45;17.85;;;6.90;;
53108;SDS011;39007;53.090;6.074;2023-03-14T05:55:11;15.93;;;6.47;;
53108;SDS011;39007;53.090;6.074;2023-03-14T05:57:37;21.30;;;7.28;;
53108;SDS011;39007;53.090;6.074;2023-03-14T06:00:03;17.95;;;7.85;;
53108;SDS011;39007;53.090;6.074;2023-03-14T06:02:30;20.67;;;7.90;;
53108;SDS011;39007;53.090;6.074;2023-03-14T06:04:56;17.17;;;7.50;;
53108;SDS011;39007;53.090;6.074;2023-03-14T06:07:22;15.82;;;6.85;;
53108;SDS011;39007;53.090;6.074;2023-03-14T06:09:48;13.80;;;6.35;;
53108;SDS011;39007;53.090;6.074;2023-03-14T06:12:14;19.90;;;7.00;;
53108;SDS011;39007;53.090;6.074;2023-03-14T06:14:40;14.73;;;6.30;;
53108;SDS011;39007;53.090;6.074;2023-03-14T06:17:06;14.77;;;5.82;;
53108;SDS011;39007;53.090;6.074;2023-03-14T06:19:32;14.43;;;4.68;;
53108;SDS011;39007;53.090;6.074;2023-03-14T06:21:58;11.93;;;2.92;;
53108;SDS011;39007;53.090;6.074;2023-03-14T06:24:24;13.35;;;2.38;;
53108;SDS011;39007;53.090;6.074;2023-03-14T06:26:50;13.02;;;2.30;;
53108;SDS011;39007;53.090;6.074;2023-03-14T06:29:16;13.63;;;2.33;;
53108;SDS011;39007;53.090;6.074;2023-03-14T06:31:42;14.45;;;2.72;;
53108;SDS011;39007;53.090;6.074;2023-03-14T06:34:08;16.17;;;3.70;;
53108;SDS011;39007;53.090;6.074;2023-03-14T06:36:34;16.02;;;3.08;;
53108;SDS011;39007;53.090;6.074;2023-03-14T06:39:00;18.05;;;3.42;;
53108;SDS011;39007;53.090;6.074;2023-03-14T06:41:26;21.40;;;3.42;;
53108;SDS011;39007;53.090;6.074;2023-03-14T06:43:53;18.00;;;3.05;;
53108;SDS011;39007;53.090;6.074;2023-03-14T06:46:19;21.17;;;3.72;;
53108;SDS011;39007;53.090;6.074;2023-03-14T06:48:45;23.10;;;3.10;;
53108;SDS011;39007;53.090;6.074;2023-03-14T06:51:11;14.07;;;3.38;;
53108;SDS011;39007;53.090;6.074;2023-03-14T06:53:37;15.10;;;2.80;;
53108;SDS011;39007;53.090;6.074;2023-03-14T06:56:03;14.02;;;2.25;;
53108;SDS011;39007;53.090;6.074;2023-03-14T06:58:29;11.70;;;2.05;;
53108;SDS011;39007;53.090;6.074;2023-03-14T07:00:55;10.52;;;1.70;;
53108;SDS011;39007;53.090;6.074;2023-03-14T07:03:22;12.75;;;2.17;;
53108;SDS011;39007;53.090;6.074;2023-03-14T07:05:48;11.55;;;2.20;;
53108;SDS011;39007;53.090;6.074;2023-03-14T07:08:15;12.77;;;1.90;;
53108;SDS011;39007;53.090;6.074;2023-03-14T07:10:41;7.85;;;1.48;;
53108;SDS011;39007;53.090;6.074;2023-03-14T07:13:07;12.02;;;1.75;;
53108;SDS011;39007;53.090;6.074;2023-03-14T07:15:33;8.70;;;1.20;;
53108;SDS011;39007;53.090;6.074;2023-03-14T07:17:59;7.93;;;1.40;;
53108;SDS011;39007;53.090;6.074;2023-03-14T07:20:25;8.98;;;1.83;;
53108;SDS011;39007;53.090;6.074;2023-03-14T07:22:51;10.75;;;1.83;;
53108;SDS011;39007;53.090;6.074;2023-03-14T07:25:17;9.35;;;2.05;;
53108;SDS011;39007;53.090;6.074;2023-03-14T07:27:44;9.48;;;1.58;;
53108;SDS011;39007;53.090;6.074;2023-03-14T07:30:11;11.07;;;2.20;;
53108;SDS011;39007;53.090;6.074;2023-03-14T07:32:37;10.93;;;1.60;;
53108;SDS011;39007;53.090;6.074;2023-03-14T07:35:03;4.43;;;1.20;;
53108;SDS011;39007;53.090;6.074;2023-03-14T07:37:29;13.07;;;1.70;;
53108;SDS011;39007;53.090;6.074;2023-03-14T07:39:55;6.38;;;1.45;;
53108;SDS011;39007;53.090;6.074;2023-03-14T07:42:21;7.30;;;1.98;;
53108;SDS011;39007;53.090;6.074;2023-03-14T07:44:47;8.88;;;1.75;;
53108;SDS011;39007;53.090;6.074;2023-03-14T07:47:14;8.98;;;1.70;;
53108;SDS011;39007;53.090;6.074;2023-03-14T07:49:40;12.80;;;2.13;;
53108;SDS011;39007;53.090;6.074;2023-03-14T07:52:06;9.85;;;2.03;;
53108;SDS011;39007;53.090;6.074;2023-03-14T07:54:32;11.45;;;2.20;;
53108;SDS011;39007;53.090;6.074;2023-03-14T07:56:58;10.15;;;1.85;;
53108;SDS011;39007;53.090;6.074;2023-03-14T07:59:26;9.88;;;2.35;;
53108;SDS011;39007;53.090;6.074;2023-03-14T08:01:52;8.82;;;1.90;;
53108;SDS011;39007;53.090;6.074;2023-03-14T08:04:18;9.20;;;1.83;;
53108;SDS011;39007;53.090;6.074;2023-03-14T08:06:44;12.95;;;2.05;;
53108;SDS011;39007;53.090;6.074;2023-03-14T08:09:10;12.18;;;2.10;;
53108;SDS011;39007;53.090;6.074;2023-03-14T08:11:36;11.27;;;2.00;;
53108;SDS011;39007;53.090;6.074;2023-03-14T08:14:02;11.65;;;2.03;;
53108;SDS011;39007;53.090;6.074;2023-03-14T08:16:28;12.50;;;2.42;;
53108;SDS011;39007;53.090;6.074;2023-03-14T08:18:54;11.27;;;2.10;;
53108;SDS011;39007;53.090;6.074;2023-03-14T08:21:21;11.30;;;2.45;;
53108;SDS011;39007;53.090;6.074;2023-03-14T08:23:47;14.63;;;2.90;;
53108;SDS011;39007;53.090;6.074;2023-03-14T08:26:13;13.80;;;2.50;;
53108;SDS011;39007;53.090;6.074;2023-03-14T08:28:39;12.60;;;2.33;;
53108;SDS011;39007;53.090;6.074;2023-03-14T08:31:05;12.00;;;2.42;;
53108;SDS011;39007;53.090;6.074;2023-03-14T08:33:31;16.50;;;2.83;;
53108;SDS011;39007;53.090;6.074;2023-03-14T08:35:58;19.58;;;3.20;;
53108;SDS011;39007;53.090;6.074;2023-03-14T08:38:25;16.35;;;3.15;;
53108;SDS011;39007;53.090;6.074;2023-03-14T08:40:56;18.15;;;3.17;;
53108;SDS011;39007;53.090;6.074;2023-03-14T08:43:22;13.77;;;3.63;;
53108;SDS011;39007;53.090;6.074;2023-03-14T08:45:48;19.30;;;3.80;;
53108;SDS011;39007;53.090;6.074;2023-03-14T08:48:14;17.83;;;4.18;;
53108;SDS011;39007;53.090;6.074;2023-03-14T08:50:40;25.17;;;4.47;;
53108;SDS011;39007;53.090;6.074;2023-03-14T08:53:06;19.00;;;3.80;;
53108;SDS011;39007;53.090;6.074;2023-03-14T08:55:33;17.95;;;3.25;;
53108;SDS011;39007;53.090;6.074;2023-03-14T08:57:59;18.55;;;3.85;;
53108;SDS011;39007;53.090;6.074;2023-03-14T09:00:32;19.73;;;4.00;;
53108;SDS011;39007;53.090;6.074;2023-03-14T09:02:58;21.42;;;3.83;;
53108;SDS011;39007;53.090;6.074;2023-03-14T09:05:24;24.52;;;3.88;;
53108;SDS011;39007;53.090;6.074;2023-03-14T09:07:50;21.95;;;4.28;;
53108;SDS011;39007;53.090;6.074;2023-03-14T09:10:16;22.73;;;4.68;;
53108;SDS011;39007;53.090;6.074;2023-03-14T09:12:42;25.63;;;4.47;;
53108;SDS011;39007;53.090;6.074;2023-03-14T09:15:08;23.08;;;4.07;;
53108;SDS011;39007;53.090;6.074;2023-03-14T09:17:35;22.13;;;3.92;;
53108;SDS011;39007;53.090;6.074;2023-03-14T09:20:02;23.05;;;4.22;;
53108;SDS011;39007;53.090;6.074;2023-03-14T09:22:31;28.33;;;5.03;;
53108;SDS011;39007;53.090;6.074;2023-03-14T09:24:58;22.83;;;4.60;;
53108;SDS011;39007;53.090;6.074;2023-03-14T09:27:24;27.15;;;4.93;;
53108;SDS011;39007;53.090;6.074;2023-03-14T09:29:50;23.45;;;4.68;;
53108;SDS011;39007;53.090;6.074;2023-03-14T09:32:16;29.67;;;5.00;;
53108;SDS011;39007;53.090;6.074;2023-03-14T09:34:43;30.20;;;5.75;;
53108;SDS011;39007;53.090;6.074;2023-03-14T09:37:09;28.65;;;4.55;;
53108;SDS011;39007;53.090;6.074;2023-03-14T09:39:35;27.77;;;5.65;;
53108;SDS011;39007;53.090;6.074;2023-03-14T09:42:02;24.90;;;4.50;;
53108;SDS011;39007;53.090;6.074;2023-03-14T09:44:31;23.08;;;4.45;;
53108;SDS011;39007;53.090;6.074;2023-03-14T09:47:00;27.95;;;4.53;;
53108;SDS011;39007;53.090;6.074;2023-03-14T09:49:30;29.55;;;4.65;;
53108;SDS011;39007;53.090;6.074;2023-03-14T09:51:58;23.27;;;4.57;;
53108;SDS011;39007;53.090;6.074;2023-03-14T09:56:57;27.58;;;5.05;;
53108;SDS011;39007;53.090;6.074;2023-03-14T09:59:23;24.05;;;4.90;;
53108;SDS011;39007;53.090;6.074;2023-03-14T10:01:49;27.42;;;4.68;;
53108;SDS011;39007;53.090;6.074;2023-03-14T10:04:17;20.63;;;4.18;;
53108;SDS011;39007;53.090;6.074;2023-03-14T10:06:47;27.85;;;4.78;;
53108;SDS011;39007;53.090;6.074;2023-03-14T10:09:19;20.10;;;4.32;;
53108;SDS011;39007;53.090;6.074;2023-03-14T10:11:51;23.30;;;4.45;;
53108;SDS011;39007;53.090;6.074;2023-03-14T10:14:17;27.15;;;4.57;;
53108;SDS011;39007;53.090;6.074;2023-03-14T10:16:53;24.40;;;4.65;;
53108;SDS011;39007;53.090;6.074;2023-03-14T10:19:20;20.75;;;4.53;;
53108;SDS011;39007;53.090;6.074;2023-03-14T10:21:50;22.20;;;4.03;;
53108;SDS011;39007;53.090;6.074;2023-03-14T10:26:44;18.58;;;3.75;;
53108;SDS011;39007;53.090;6.074;2023-03-14T10:29:13;19.35;;;3.67;;
53108;SDS011;39007;53.090;6.074;2023-03-14T10:31:47;23.67;;;4.32;;
53108;SDS011;39007;53.090;6.074;2023-03-14T10:34:20;19.70;;;4.10;;
53108;SDS011;39007;53.090;6.074;2023-03-14T10:36:46;18.95;;;3.53;;
53108;SDS011;39007;53.090;6.074;2023-03-14T10:41:50;18.92;;;3.65;;
53108;SDS011;39007;53.090;6.074;2023-03-14T10:44:20;15.30;;;3.35;;
53108;SDS011;39007;53.090;6.074;2023-03-14T10:46:52;22.23;;;3.75;;
53108;SDS011;39007;53.090;6.074;2023-03-14T10:49:28;15.50;;;3.17;;
53108;SDS011;39007;53.090;6.074;2023-03-14T10:51:55;16.63;;;3.30;;
53108;SDS011;39007;53.090;6.074;2023-03-14T10:54:29;17.38;;;3.10;;
53108;SDS011;39007;53.090;6.074;2023-03-14T10:56:56;13.18;;;2.85;;
53108;SDS011;39007;53.090;6.074;2023-03-14T10:59:22;17.10;;;2.80;;
53108;SDS011;39007;53.090;6.074;2023-03-14T11:10:17;13.55;;;3.00;;
53108;SDS011;39007;53.090;6.074;2023-03-14T11:15:03;15.45;;;2.83;;
53108;SDS011;39007;53.090;6.074;2023-03-14T11:17:34;8.48;;;2.25;;
53108;SDS011;39007;53.090;6.074;2023-03-14T11:25:13;14.10;;;2.75;;
53108;SDS011;39007;53.090;6.074;2023-03-14T11:27:42;11.90;;;2.38;;
53108;SDS011;39007;53.090;6.074;2023-03-14T11:32:59;9.15;;;2.40;;
53108;SDS011;39007;53.090;6.074;2023-03-14T11:35:30;10.77;;;2.30;;
53108;SDS011;39007;53.090;6.074;2023-03-14T11:40:26;6.50;;;1.92;;
53108;SDS011;39007;53.090;6.074;2023-03-14T11:43:15;8.07;;;1.90;;
53108;SDS011;39007;53.090;6.074;2023-03-14T11:45:41;9.95;;;2.08;;
53108;SDS011;39007;53.090;6.074;2023-03-14T11:50:43;12.80;;;2.38;;
53108;SDS011;39007;53.090;6.074;2023-03-14T11:53:12;15.43;;;2.75;;
53108;SDS011;39007;53.090;6.074;2023-03-14T11:55:40;12.75;;;2.25;;
53108;SDS011;39007;53.090;6.074;2023-03-14T11:58:20;9.90;;;2.25;;
53108;SDS011;39007;53.090;6.074;2023-03-14T12:00:49;18.83;;;3.05;;
53108;SDS011;39007;53.090;6.074;2023-03-14T12:03:27;11.65;;;2.42;;
53108;SDS011;39007;53.090;6.074;2023-03-14T12:11:01;14.45;;;2.90;;
53108;SDS011;39007;53.090;6.074;2023-03-14T12:13:29;17.15;;;2.95;;
53108;SDS011;39007;53.090;6.074;2023-03-14T12:15:58;16.98;;;3.53;;
53108;SDS011;39007;53.090;6.074;2023-03-14T12:18:31;19.65;;;2.97;;
53108;SDS011;39007;53.090;6.074;2023-03-14T12:21:01;17.60;;;3.58;;
53108;SDS011;39007;53.090;6.074;2023-03-14T12:23:34;19.05;;;3.25;;
53108;SDS011;39007;53.090;6.074;2023-03-14T12:28:37;15.23;;;2.93;;
53108;SDS011;39007;53.090;6.074;2023-03-14T12:33:48;9.45;;;2.45;;
53108;SDS011;39007;53.090;6.074;2023-03-14T12:36:18;11.13;;;2.65;;
53108;SDS011;39007;53.090;6.074;2023-03-14T12:38:46;11.75;;;2.58;;
53108;SDS011;39007;53.090;6.074;2023-03-14T12:41:25;11.40;;;2.60;;
53108;SDS011;39007;53.090;6.074;2023-03-14T12:43:52;11.00;;;2.22;;
53108;SDS011;39007;53.090;6.074;2023-03-14T12:46:19;11.63;;;3.05;;
53108;SDS011;39007;53.090;6.074;2023-03-14T12:51:16;9.10;;;2.15;;
53108;SDS011;39007;53.090;6.074;2023-03-14T12:53:47;9.30;;;2.20;;
53108;SDS011;39007;53.090;6.074;2023-03-14T12:58:54;9.90;;;2.03;;
53108;SDS011;39007;53.090;6.074;2023-03-14T13:01:23;12.60;;;2.80;;
53108;SDS011;39007;53.090;6.074;2023-03-14T13:03:54;12.25;;;2.28;;
53108;SDS011;39007;53.090;6.074;2023-03-14T13:11:53;13.15;;;2.60;;
53108;SDS011;39007;53.090;6.074;2023-03-14T13:14:19;12.23;;;2.75;;
53108;SDS011;39007;53.090;6.074;2023-03-14T13:16:46;10.98;;;2.38;;
53108;SDS011;39007;53.090;6.074;2023-03-14T13:19:17;10.77;;;2.50;;
53108;SDS011;39007;53.090;6.074;2023-03-14T13:21:44;15.27;;;2.67;;
53108;SDS011;39007;53.090;6.074;2023-03-14T13:24:23;9.77;;;2.33;;
53108;SDS011;39007;53.090;6.074;2023-03-14T13:26:49;9.73;;;2.15;;
53108;SDS011;39007;53.090;6.074;2023-03-14T13:29:25;10.02;;;2.45;;
53108;SDS011;39007;53.090;6.074;2023-03-14T13:31:52;8.00;;;2.10;;
53108;SDS011;39007;53.090;6.074;2023-03-14T13:34:19;11.05;;;2.58;;
53108;SDS011;39007;53.090;6.074;2023-03-14T13:36:45;7.30;;;2.28;;
53108;SDS011;39007;53.090;6.074;2023-03-14T13:39:16;9.48;;;2.40;;
53108;SDS011;39007;53.090;6.074;2023-03-14T13:41:43;12.77;;;2.50;;
53108;SDS011;39007;53.090;6.074;2023-03-14T13:44:16;9.10;;;2.35;;
53108;SDS011;39007;53.090;6.074;2023-03-14T13:46:44;8.35;;;1.92;;
53108;SDS011;39007;53.090;6.074;2023-03-14T13:49:11;11.80;;;2.58;;
53108;SDS011;39007;53.090;6.074;2023-03-14T13:51:39;12.90;;;2.55;;
53108;SDS011;39007;53.090;6.074;2023-03-14T13:54:15;12.80;;;2.60;;
53108;SDS011;39007;53.090;6.074;2023-03-14T13:56:41;12.60;;;2.63;;
53108;SDS011;39007;53.090;6.074;2023-03-14T13:59:24;14.07;;;2.58;;
53108;SDS011;39007;53.090;6.074;2023-03-14T14:01:50;13.25;;;2.70;;
53108;SDS011;39007;53.090;6.074;2023-03-14T14:04:18;13.00;;;2.70;;
53108;SDS011;39007;53.090;6.074;2023-03-14T14:06:56;11.60;;;2.30;;
53108;SDS011;39007;53.090;6.074;2023-03-14T14:09:24;12.65;;;3.00;;
53108;SDS011;39007;53.090;6.074;2023-03-14T14:11:54;10.55;;;2.25;;
53108;SDS011;39007;53.090;6.074;2023-03-14T14:14:24;12.40;;;2.50;;
53108;SDS011;39007;53.090;6.074;2023-03-14T14:16:52;10.07;;;2.33;;
53108;SDS011;39007;53.090;6.074;2023-03-14T14:19:19;12.98;;;2.40;;
53108;SDS011;39007;53.090;6.074;2023-03-14T14:21:46;9.75;;;2.30;;
53108;SDS011;39007;53.090;6.074;2023-03-14T14:24:13;9.95;;;2.03;;
53108;SDS011;39007;53.090;6.074;2023-03-14T14:26:52;11.30;;;2.33;;
53108;SDS011;39007;53.090;6.074;2023-03-14T14:29:25;7.82;;;1.98;;
53108;SDS011;39007;53.090;6.074;2023-03-14T14:34:57;11.70;;;2.30;;
53108;SDS011;39007;53.090;6.074;2023-03-14T14:37:27;7.78;;;2.00;;
53108;SDS011;39007;53.090;6.074;2023-03-14T14:40:05;11.27;;;2.17;;
53108;SDS011;39007;53.090;6.074;2023-03-14T14:42:32;9.35;;;2.30;;
53108;SDS011;39007;53.090;6.074;2023-03-14T14:44:58;8.43;;;1.88;;
53108;SDS011;39007;53.090;6.074;2023-03-14T14:47:26;10.57;;;2.40;;
53108;SDS011;39007;53.090;6.074;2023-03-14T14:49:54;12.77;;;2.50;;
53108;SDS011;39007;53.090;6.074;2023-03-14T14:52:21;12.32;;;2.70;;
53108;SDS011;39007;53.090;6.074;2023-03-14T14:57:17;13.38;;;2.97;;
53108;SDS011;39007;53.090;6.074;2023-03-14T14:59:43;10.15;;;2.33;;
53108;SDS011;39007;53.090;6.074;2023-03-14T15:02:20;9.85;;;2.75;;
53108;SDS011;39007;53.090;6.074;2023-03-14T15:04:49;10.82;;;3.00;;
53108;SDS011;39007;53.090;6.074;2023-03-14T15:07:16;11.88;;;2.58;;
53108;SDS011;39007;53.090;6.074;2023-03-14T15:09:42;13.77;;;2.67;;
53108;SDS011;39007;53.090;6.074;2023-03-14T15:12:08;15.30;;;2.42;;
53108;SDS011;39007;53.090;6.074;2023-03-14T15:14:34;13.45;;;2.80;;
53108;SDS011;39007;53.090;6.074;2023-03-14T15:17:00;12.05;;;2.67;;
53108;SDS011;39007;53.090;6.074;2023-03-14T15:19:27;16.25;;;3.05;;
53108;SDS011;39007;53.090;6.074;2023-03-14T15:21:55;11.63;;;2.90;;
53108;SDS011;39007;53.090;6.074;2023-03-14T15:24:21;15.57;;;2.30;;
53108;SDS011;39007;53.090;6.074;2023-03-14T15:26:47;16.35;;;2.90;;
53108;SDS011;39007;53.090;6.074;2023-03-14T15:29:13;13.32;;;2.63;;
53108;SDS011;39007;53.090;6.074;2023-03-14T15:31:40;16.40;;;2.38;;
53108;SDS011;39007;53.090;6.074;2023-03-14T15:34:08;9.95;;;2.55;;
53108;SDS011;39007;53.090;6.074;2023-03-14T15:36:34;12.25;;;2.40;;
53108;SDS011;39007;53.090;6.074;2023-03-14T15:39:01;13.15;;;2.53;;
53108;SDS011;39007;53.090;6.074;2023-03-14T15:41:27;9.18;;;2.45;;